createdAt,value
2022-08-22T00:00:15.304Z,16.07
2022-08-22T00:02:47.891Z,19.39
2022-08-22T00:02:57.073Z,17.99
2022-08-22T00:06:00.275Z,16.03
2022-08-22T00:08:32.621Z,15.93
2022-08-22T00:11:24.973Z,15.98
2022-08-22T00:14:12.970Z,16.01
2022-08-22T00:16:53.494Z,15.97
2022-08-22T00:19:20.163Z,15.97
2022-08-22T00:21:53.494Z,16.00
2022-08-22T00:24:38.323Z,15.99
2022-08-22T00:27:10.423Z,15.96
2022-08-22T00:29:47.812Z,16.03
2022-08-22T00:32:27.012Z,16.07
2022-08-22T00:35:03.817Z,16.16
2022-08-22T00:37:38.513Z,16.21
2022-08-22T00:40:42.391Z,16.18
2022-08-22T00:43:45.471Z,15.96
2022-08-22T00:46:33.364Z,15.87
2022-08-22T00:49:05.733Z,15.85
2022-08-22T00:52:06.127Z,15.87
2022-08-22T00:55:06.651Z,15.80
2022-08-22T00:57:59.390Z,15.75
2022-08-22T01:00:35.061Z,15.59
2022-08-22T01:03:33.758Z,15.71
2022-08-22T01:06:32.407Z,15.71
2022-08-22T01:09:15.635Z,15.64
2022-08-22T01:12:17.608Z,15.66
2022-08-22T01:14:50.004Z,15.66
2022-08-22T01:17:25.280Z,15.75
2022-08-22T01:20:07.176Z,15.73
2022-08-22T01:23:10.916Z,15.81
2022-08-22T01:25:57.027Z,15.76
2022-08-22T01:28:44.800Z,15.71
2022-08-22T01:31:49.760Z,15.71
2022-08-22T01:34:53.707Z,15.82
2022-08-22T01:37:35.329Z,15.71
2022-08-22T01:40:32.365Z,15.69
2022-08-22T01:43:20.755Z,15.67
2022-08-22T01:46:31.451Z,15.64
2022-08-22T01:49:29.168Z,15.70
2022-08-22T01:52:01.761Z,15.73
2022-08-22T01:54:55.751Z,15.77
2022-08-22T01:57:24.431Z,15.82
2022-08-22T01:59:54.075Z,15.86
2022-08-22T02:02:34.314Z,15.81
2022-08-22T02:05:24.560Z,15.85
2022-08-22T02:08:17.307Z,15.77
2022-08-22T02:11:07.060Z,15.75
2022-08-22T02:13:42.165Z,15.69
2022-08-22T02:16:17.779Z,15.76
2022-08-22T02:19:06.098Z,15.75
2022-08-22T02:21:41.324Z,15.80
2022-08-22T02:24:44.659Z,15.79
2022-08-22T02:27:17.534Z,15.77
2022-08-22T02:29:52.828Z,15.79
2022-08-22T02:32:28.040Z,15.72
2022-08-22T02:35:06.433Z,15.72
2022-08-22T02:37:35.694Z,15.65
2022-08-22T02:40:09.728Z,15.61
2022-08-22T02:42:48.767Z,15.61
2022-08-22T02:45:29.572Z,15.57
2022-08-22T02:48:27.894Z,15.63
2022-08-22T02:50:57.941Z,15.77
2022-08-22T02:53:50.034Z,15.77
2022-08-22T02:56:23.659Z,15.68
2022-08-22T02:58:57.005Z,15.58
2022-08-22T03:01:40.766Z,15.47
2022-08-22T03:04:31.844Z,15.45
2022-08-22T03:06:58.175Z,15.43
2022-08-22T03:09:34.644Z,15.40
2022-08-22T03:12:25.328Z,15.33
2022-08-22T03:15:11.822Z,15.31
2022-08-22T03:18:05.804Z,15.13
2022-08-22T03:20:45.405Z,15.25
2022-08-22T03:23:31.144Z,15.14
2022-08-22T03:26:19.936Z,15.21
2022-08-22T03:29:08.888Z,15.21
2022-08-22T03:31:36.393Z,15.19
2022-08-22T03:34:16.980Z,15.06
2022-08-22T03:37:15.787Z,14.99
2022-08-22T03:39:45.335Z,15.12
2022-08-22T03:42:55.855Z,15.20
2022-08-22T03:45:59.815Z,15.17
2022-08-22T03:48:52.685Z,15.11
2022-08-22T03:51:52.664Z,15.03
2022-08-22T03:54:50.407Z,14.99
2022-08-22T03:57:40.100Z,15.05
2022-08-22T04:00:24.627Z,15.07
2022-08-22T04:03:22.605Z,15.10
2022-08-22T04:06:11.586Z,15.17
2022-08-22T04:09:29.998Z,15.07
2022-08-22T04:12:26.149Z,15.11
2022-08-22T04:15:31.233Z,15.08
2022-08-22T04:18:31.248Z,15.05
2022-08-22T04:21:12.994Z,15.02
2022-08-22T04:24:02.275Z,14.99
2022-08-22T04:26:43.713Z,15.30
2022-08-22T04:29:59.710Z,15.15
2022-08-22T04:32:36.509Z,15.22
2022-08-22T04:35:18.873Z,15.29
2022-08-22T04:37:52.065Z,15.30
2022-08-22T04:40:27.742Z,15.32
2022-08-22T04:43:00.884Z,15.35
2022-08-22T04:45:37.244Z,15.41
2022-08-22T04:48:09.567Z,15.54
2022-08-22T04:50:51.656Z,15.56
2022-08-22T04:53:35.408Z,15.64
2022-08-22T04:56:16.402Z,15.76
2022-08-22T04:58:54.358Z,15.82
2022-08-22T05:01:40.870Z,16.00
2022-08-22T05:04:20.245Z,16.03
2022-08-22T05:07:15.752Z,16.03
2022-08-22T05:09:56.431Z,15.98
2022-08-22T05:12:31.763Z,16.06
2022-08-22T05:15:06.153Z,16.02
2022-08-22T05:17:37.416Z,15.93
2022-08-22T05:20:08.946Z,16.03
2022-08-22T05:22:40.667Z,16.01
2022-08-22T05:25:19.784Z,16.18
2022-08-22T05:27:53.296Z,16.27
2022-08-22T05:30:27.817Z,16.19
2022-08-22T05:33:12.544Z,16.30
2022-08-22T05:35:52.429Z,16.35
2022-08-22T05:38:25.861Z,16.34
2022-08-22T05:40:59.792Z,16.41
2022-08-22T05:43:27.097Z,16.41
2022-08-22T05:45:58.049Z,16.54
2022-08-22T05:48:39.270Z,16.62
2022-08-22T05:51:31.347Z,16.79
2022-08-22T05:54:11.147Z,16.82
2022-08-22T05:56:45.882Z,16.86
2022-08-22T05:59:27.671Z,16.74
2022-08-22T06:02:05.992Z,17.00
2022-08-22T06:04:45.464Z,17.03
2022-08-22T06:07:21.192Z,17.07
2022-08-22T06:09:47.609Z,17.20
2022-08-22T06:12:22.560Z,17.19
2022-08-22T06:15:00.744Z,17.26
2022-08-22T06:17:33.564Z,17.08
2022-08-22T06:20:00.383Z,17.12
2022-08-22T06:22:36.828Z,17.22
2022-08-22T06:25:18.494Z,17.22
2022-08-22T06:27:49.112Z,17.26
2022-08-22T06:30:17.729Z,17.43
2022-08-22T06:32:59.865Z,17.47
2022-08-22T06:35:52.134Z,17.51
2022-08-22T06:38:20.435Z,17.62
2022-08-22T06:40:49.195Z,17.58
2022-08-22T06:43:17.192Z,17.61
2022-08-22T06:45:44.084Z,17.77
2022-08-22T06:48:16.475Z,17.66
2022-08-22T06:50:45.340Z,17.74
2022-08-22T06:53:19.631Z,18.00
2022-08-22T06:55:52.987Z,17.94
2022-08-22T06:58:39.759Z,17.95
2022-08-22T07:01:14.031Z,18.11
2022-08-22T07:03:45.177Z,18.27
2022-08-22T07:06:18.393Z,18.30
2022-08-22T07:08:45.064Z,18.34
2022-08-22T07:11:25.968Z,18.50
2022-08-22T07:14:03.465Z,18.50
2022-08-22T07:17:08.235Z,18.66
2022-08-22T07:19:39.399Z,18.68
2022-08-22T07:22:23.339Z,18.64
2022-08-22T07:24:57.984Z,18.61
2022-08-22T07:27:48.930Z,18.74
2022-08-22T07:30:27.256Z,18.63
2022-08-22T07:33:23.692Z,18.57
2022-08-22T07:35:53.752Z,18.65
2022-08-22T07:38:43.119Z,18.78
2022-08-22T07:41:20.955Z,18.69
2022-08-22T07:44:08.839Z,18.87
2022-08-22T07:46:41.200Z,18.74
2022-08-22T07:49:17.397Z,18.88
2022-08-22T07:51:47.743Z,19.02
2022-08-22T07:54:20.092Z,19.19
2022-08-22T07:57:09.514Z,19.21
2022-08-22T07:59:38.097Z,19.47
2022-08-22T08:02:10.739Z,19.40
2022-08-22T08:04:40.625Z,19.42
2022-08-22T08:07:10.583Z,19.62
2022-08-22T08:09:49.893Z,19.72
2022-08-22T08:12:20.368Z,19.75
2022-08-22T08:14:52.932Z,19.90
2022-08-22T08:17:30.044Z,19.85
2022-08-22T08:20:03.462Z,19.87
2022-08-22T08:22:31.197Z,19.92
2022-08-22T08:25:00.187Z,19.88
2022-08-22T08:27:50.499Z,20.22
2022-08-22T08:30:23.442Z,20.12
2022-08-22T08:32:59.543Z,20.09
2022-08-22T08:36:02.373Z,20.13
2022-08-22T08:38:39.360Z,20.25
2022-08-22T08:41:14.495Z,20.24
2022-08-22T08:44:18.414Z,20.51
2022-08-22T08:47:24.766Z,20.51
2022-08-22T08:50:05.077Z,20.73
2022-08-22T08:53:13.063Z,20.99
2022-08-22T08:55:51.774Z,20.88
2022-08-22T08:58:31.856Z,21.06
2022-08-22T09:01:17.063Z,20.88
2022-08-22T09:04:04.834Z,21.00
2022-08-22T09:07:07.779Z,21.25
2022-08-22T09:09:57.303Z,21.66
2022-08-22T09:12:52.190Z,21.64
2022-08-22T09:15:59.661Z,21.71
2022-08-22T09:18:40.615Z,21.66
2022-08-22T09:21:31.151Z,21.80
2022-08-22T09:24:23.364Z,21.75
2022-08-22T09:26:57.392Z,21.61
2022-08-22T09:29:54.536Z,21.72
2022-08-22T09:32:52.657Z,21.81
2022-08-22T09:35:26.968Z,21.97
2022-08-22T09:37:53.700Z,22.31
2022-08-22T09:40:30.868Z,22.41
2022-08-22T09:43:06.577Z,23.11
2022-08-22T09:45:40.295Z,23.63
2022-08-22T09:48:26.526Z,23.41
2022-08-22T09:51:31.627Z,23.77
2022-08-22T09:54:17.147Z,24.35
2022-08-22T09:56:53.477Z,23.55
2022-08-22T09:59:31.651Z,23.44
2022-08-22T10:02:45.426Z,23.41
2022-08-22T10:05:40.282Z,23.40
2022-08-22T10:08:32.163Z,23.60
2022-08-22T10:11:04.222Z,23.91
2022-08-22T10:13:38.332Z,23.72
2022-08-22T10:16:24.596Z,24.11
2022-08-22T10:19:19.427Z,23.89
2022-08-22T10:22:23.936Z,23.94
2022-08-22T10:25:37.363Z,23.86
2022-08-22T10:28:18.680Z,24.15
2022-08-22T10:31:00.826Z,23.98
2022-08-22T10:33:33.086Z,24.19
2022-08-22T10:36:08.069Z,23.92
2022-08-22T10:38:54.772Z,23.61
2022-08-22T10:41:39.489Z,23.93
2022-08-22T10:44:19.881Z,23.83
2022-08-22T10:46:55.283Z,23.58
2022-08-22T10:49:51.261Z,23.50
2022-08-22T10:52:43.275Z,23.79
2022-08-22T10:55:19.646Z,23.72
2022-08-22T10:58:06.291Z,23.80
2022-08-22T11:00:49.986Z,23.69
2022-08-22T11:03:53.070Z,23.74
2022-08-22T11:06:27.906Z,23.77
2022-08-22T11:09:07.124Z,23.38
2022-08-22T11:11:46.489Z,23.60
2022-08-22T11:14:42.379Z,23.45
2022-08-22T11:17:31.755Z,23.69
2022-08-22T11:20:22.750Z,23.60
2022-08-22T11:23:24.007Z,23.42
2022-08-22T11:25:53.777Z,23.69
2022-08-22T11:28:57.495Z,23.56
2022-08-22T11:32:12.717Z,23.70
2022-08-22T11:34:48.312Z,23.77
2022-08-22T11:37:43.302Z,23.67
2022-08-22T11:40:32.268Z,23.71
2022-08-22T11:43:17.986Z,24.02
2022-08-22T11:45:50.956Z,24.01
2022-08-22T11:49:02.486Z,23.96
2022-08-22T11:52:10.666Z,24.50
2022-08-22T11:55:08.373Z,24.66
2022-08-22T11:57:46.104Z,25.22
2022-08-22T12:00:20.998Z,26.01
2022-08-22T12:03:14.563Z,26.75
2022-08-22T12:06:23.089Z,26.64
2022-08-22T12:09:25.447Z,26.93
2022-08-22T12:12:29.675Z,26.29
2022-08-22T12:15:03.907Z,26.18
2022-08-22T12:17:55.576Z,26.25
2022-08-22T12:20:52.453Z,26.62
2022-08-22T12:23:43.496Z,26.23
2022-08-22T12:26:17.182Z,26.19
2022-08-22T12:28:59.790Z,26.37
2022-08-22T12:31:56.729Z,26.14
2022-08-22T12:34:52.742Z,25.90
2022-08-22T12:37:29.703Z,25.84
2022-08-22T12:40:21.380Z,25.50
2022-08-22T12:43:21.999Z,25.67
2022-08-22T12:46:28.849Z,25.82
2022-08-22T12:49:20.414Z,25.55
2022-08-22T12:52:38.269Z,25.85
2022-08-22T12:55:13.920Z,26.15
2022-08-22T12:58:00.865Z,25.66
2022-08-22T13:00:34.986Z,25.52
2022-08-22T13:03:09.694Z,26.03
2022-08-22T13:05:40.867Z,25.75
2022-08-22T13:08:29.772Z,25.64
2022-08-22T13:11:01.830Z,26.23
2022-08-22T13:13:36.844Z,26.84
2022-08-22T13:16:08.527Z,27.39
2022-08-22T13:18:53.695Z,26.62
2022-08-22T13:21:26.326Z,26.50
2022-08-22T13:24:04.736Z,26.49
2022-08-22T13:26:35.297Z,26.37
2022-08-22T13:29:39.560Z,26.53
2022-08-22T13:32:02.714Z,27.07
2022-08-22T13:34:48.250Z,27.74
2022-08-22T13:37:36.531Z,27.89
2022-08-22T13:40:08.846Z,28.00
2022-08-22T13:42:50.281Z,27.97
2022-08-22T13:45:29.796Z,28.06
2022-08-22T13:48:03.593Z,28.07
2022-08-22T13:50:37.591Z,28.15
2022-08-22T13:53:49.005Z,28.88
2022-08-22T13:56:32.646Z,28.69
2022-08-22T13:59:05.776Z,28.67
2022-08-22T14:01:53.656Z,28.46
2022-08-22T14:04:32.118Z,28.87
2022-08-22T14:07:03.618Z,28.81
2022-08-22T14:09:54.430Z,28.52
2022-08-22T14:12:28.720Z,27.59
2022-08-22T14:15:07.496Z,27.66
2022-08-22T14:17:43.750Z,26.85
2022-08-22T14:20:32.520Z,26.89
2022-08-22T14:23:04.931Z,26.32
2022-08-22T14:25:37.753Z,26.15
2022-08-22T14:28:11.070Z,26.12
2022-08-22T14:31:02.490Z,25.76
2022-08-22T14:33:39.904Z,26.29
2022-08-22T14:36:18.876Z,25.90
2022-08-22T14:39:07.093Z,25.83
2022-08-22T14:41:52.598Z,25.64
2022-08-22T14:44:31.321Z,25.90
2022-08-22T14:47:02.190Z,25.81
2022-08-22T14:49:51.607Z,25.90
2022-08-22T14:52:30.782Z,25.74
2022-08-22T14:55:09.406Z,25.39
2022-08-22T14:57:42.975Z,25.40
2022-08-22T15:00:12.412Z,25.59
2022-08-22T15:02:40.807Z,25.71
2022-08-22T15:05:18.327Z,26.30
2022-08-22T15:07:55.019Z,26.45
2022-08-22T15:10:34.371Z,26.53
2022-08-22T15:13:05.187Z,26.61
2022-08-22T15:15:49.850Z,26.13
2022-08-22T15:18:23.416Z,25.71
2022-08-22T15:21:02.177Z,25.95
2022-08-22T15:23:31.924Z,25.95
2022-08-22T15:26:03.662Z,26.10
2022-08-22T15:28:35.872Z,26.03
2022-08-22T15:31:20.091Z,26.00
2022-08-22T15:33:48.379Z,26.27
2022-08-22T15:36:27.167Z,26.58
2022-08-22T15:39:18.309Z,26.67
2022-08-22T15:41:49.363Z,26.61
2022-08-22T15:44:32.441Z,26.75
2022-08-22T15:47:34.994Z,26.50
2022-08-22T15:50:08.190Z,26.18
2022-08-22T15:53:09.693Z,26.53
2022-08-22T15:55:37.086Z,26.58
2022-08-22T15:58:12.869Z,26.49
2022-08-22T16:00:45.355Z,26.66
2022-08-22T16:03:27.036Z,26.58
2022-08-22T16:06:00.174Z,25.95
2022-08-22T16:08:48.705Z,25.84
2022-08-22T16:11:29.693Z,25.73
2022-08-22T16:14:38.240Z,25.53
2022-08-22T16:17:30.191Z,25.92
2022-08-22T16:20:25.546Z,25.37
2022-08-22T16:22:57.761Z,25.19
2022-08-22T16:25:43.036Z,24.99
2022-08-22T16:28:54.370Z,24.77
2022-08-22T16:31:45.808Z,24.80
2022-08-22T16:34:24.380Z,24.61
2022-08-22T16:37:14.349Z,24.76
2022-08-22T16:39:59.814Z,24.71
2022-08-22T16:42:35.904Z,24.56
2022-08-22T16:45:20.739Z,24.45
2022-08-22T16:47:58.189Z,24.61
2022-08-22T16:50:32.488Z,24.59
2022-08-22T16:53:01.138Z,24.38
2022-08-22T16:55:30.507Z,24.46
2022-08-22T16:58:55.807Z,24.47
2022-08-22T17:01:36.320Z,24.59
2022-08-22T17:04:13.228Z,24.55
2022-08-22T17:07:01.575Z,24.57
2022-08-22T17:09:49.214Z,24.43
2022-08-22T17:12:42.349Z,24.34
2022-08-22T17:15:33.758Z,24.41
2022-08-22T17:18:30.812Z,24.36
2022-08-22T17:21:04.546Z,24.35
2022-08-22T17:23:58.201Z,24.32
2022-08-22T17:26:55.308Z,24.39
2022-08-22T17:29:33.093Z,24.24
2022-08-22T17:32:34.746Z,24.25
2022-08-22T17:35:26.172Z,24.13
2022-08-22T17:38:07.751Z,24.18
2022-08-22T17:40:53.435Z,24.10
2022-08-22T17:43:33.520Z,24.01
2022-08-22T17:46:43.522Z,23.91
2022-08-22T17:49:35.011Z,23.65
2022-08-22T17:52:12.365Z,23.67
2022-08-22T17:54:47.279Z,23.44
2022-08-22T17:57:27.798Z,23.27
2022-08-22T18:00:11.463Z,23.22
2022-08-22T18:02:45.247Z,22.89
2022-08-22T18:05:19.763Z,23.08
2022-08-22T18:08:37.365Z,22.88
2022-08-22T18:11:00.280Z,22.59
2022-08-22T18:13:45.605Z,22.58
2022-08-22T18:16:23.171Z,22.36
2022-08-22T18:18:54.208Z,22.36
2022-08-22T18:21:39.019Z,22.13
2022-08-22T18:24:20.334Z,21.90
2022-08-22T18:27:02.791Z,22.04
2022-08-22T18:29:55.020Z,21.91
2022-08-22T18:32:28.402Z,21.78
2022-08-22T18:35:10.115Z,21.56
2022-08-22T18:37:37.097Z,21.59
2022-08-22T18:40:22.838Z,21.61
2022-08-22T18:43:02.265Z,21.58
2022-08-22T18:45:46.790Z,21.46
2022-08-22T18:48:29.403Z,21.24
2022-08-22T18:51:22.430Z,21.33
2022-08-22T18:53:53.255Z,21.18
2022-08-22T18:56:44.875Z,21.32
2022-08-22T18:59:45.791Z,21.05
2022-08-22T19:02:37.062Z,21.11
2022-08-22T19:05:20.952Z,21.05
2022-08-22T19:08:06.990Z,20.93
2022-08-22T19:10:39.008Z,20.87
2022-08-22T19:13:24.909Z,20.85
2022-08-22T19:16:07.387Z,20.75
2022-08-22T19:19:06.284Z,20.67
2022-08-22T19:22:22.370Z,20.60
2022-08-22T19:25:13.498Z,20.48
2022-08-22T19:27:46.882Z,20.40
2022-08-22T19:30:45.799Z,20.36
2022-08-22T19:33:16.748Z,20.29
2022-08-22T19:35:45.506Z,20.34
2022-08-22T19:38:32.251Z,20.33
2022-08-22T19:40:58.746Z,20.16
2022-08-22T19:43:28.092Z,20.15
2022-08-22T19:45:56.263Z,20.05
2022-08-22T19:48:31.410Z,19.99
2022-08-22T19:51:24.847Z,20.06
2022-08-22T19:54:16.742Z,19.94
2022-08-22T19:57:07.190Z,19.97
2022-08-22T19:59:52.947Z,19.80
2022-08-22T20:02:35.101Z,19.72
2022-08-22T20:05:19.488Z,19.58
2022-08-22T20:08:13.375Z,19.79
2022-08-22T20:10:42.912Z,19.77
2022-08-22T20:13:27.988Z,19.75
2022-08-22T20:16:09.576Z,19.61
2022-08-22T20:19:06.423Z,19.56
2022-08-22T20:21:51.903Z,19.51
2022-08-22T20:24:40.025Z,19.48
2022-08-22T20:27:17.089Z,19.55
2022-08-22T20:29:52.963Z,19.39
2022-08-22T20:32:23.080Z,19.45
2022-08-22T20:34:56.882Z,19.23
2022-08-22T20:37:45.466Z,19.23
2022-08-22T20:40:32.284Z,19.23
2022-08-22T20:43:13.830Z,19.15
2022-08-22T20:46:02.050Z,19.18
2022-08-22T20:48:37.667Z,19.11
2022-08-22T20:51:06.127Z,19.05
2022-08-22T20:53:34.475Z,19.22
2022-08-22T20:56:01.159Z,19.13
2022-08-22T20:58:35.514Z,19.12
2022-08-22T21:01:06.315Z,19.17
2022-08-22T21:03:47.264Z,19.14
2022-08-22T21:06:13.780Z,19.13
2022-08-22T21:08:41.584Z,19.16
2022-08-22T21:11:28.146Z,19.13
2022-08-22T21:13:55.461Z,19.15
2022-08-22T21:16:33.048Z,19.15
2022-08-22T21:19:04.276Z,19.04
2022-08-22T21:21:33.895Z,19.03
2022-08-22T21:24:09.305Z,19.04
2022-08-22T21:26:46.072Z,19.00
2022-08-22T21:29:12.398Z,18.99
2022-08-22T21:32:04.432Z,18.92
2022-08-22T21:34:36.856Z,18.91
2022-08-22T21:37:18.125Z,18.89
2022-08-22T21:39:49.776Z,18.93
2022-08-22T21:42:40.350Z,18.89
2022-08-22T21:45:25.484Z,18.77
2022-08-22T21:47:52.940Z,18.70
2022-08-22T21:50:25.269Z,18.74
2022-08-22T21:52:54.716Z,18.61
2022-08-22T21:55:42.719Z,18.44
2022-08-22T21:58:32.625Z,18.34
2022-08-22T22:01:24.830Z,18.23
2022-08-22T22:03:51.920Z,18.15
2022-08-22T22:06:18.500Z,18.20
2022-08-22T22:08:45.029Z,18.15
2022-08-22T22:11:14.223Z,18.19
2022-08-22T22:13:41.414Z,18.26
2022-08-22T22:16:09.977Z,18.21
2022-08-22T22:18:38.227Z,18.12
2022-08-22T22:21:04.917Z,18.15
2022-08-22T22:23:31.495Z,18.08
2022-08-22T22:26:01.399Z,18.03
2022-08-22T22:28:34.374Z,17.95
2022-08-22T22:31:01.096Z,17.80
2022-08-22T22:33:30.416Z,17.76
2022-08-22T22:35:59.895Z,17.76
2022-08-22T22:38:26.410Z,17.61
2022-08-22T22:40:53.232Z,17.58
2022-08-22T22:43:19.755Z,17.51
2022-08-22T22:45:46.213Z,17.54
2022-08-22T22:48:18.209Z,17.61
2022-08-22T22:50:50.873Z,17.44
2022-08-22T22:53:19.919Z,17.34
2022-08-22T22:55:59.674Z,17.35
2022-08-22T22:58:27.854Z,17.31
2022-08-22T23:00:54.807Z,17.32
2022-08-22T23:03:21.442Z,17.38
2022-08-22T23:05:47.863Z,17.39
2022-08-22T23:08:14.269Z,17.42
2022-08-22T23:10:40.655Z,17.47
2022-08-22T23:13:07.150Z,17.37
2022-08-22T23:15:33.562Z,17.30
2022-08-22T23:18:00.100Z,17.25
2022-08-22T23:20:26.667Z,17.16
2022-08-22T23:22:53.129Z,17.11
2022-08-22T23:25:19.631Z,16.84
2022-08-22T23:27:52.146Z,16.85
2022-08-22T23:30:19.991Z,16.89
2022-08-22T23:32:46.405Z,16.95
2022-08-22T23:35:12.822Z,17.02
2022-08-22T23:37:39.242Z,17.00
2022-08-22T23:40:08.558Z,17.06
2022-08-22T23:42:35.354Z,16.92
2022-08-22T23:45:01.759Z,16.99
2022-08-22T23:47:28.187Z,16.77
2022-08-22T23:49:54.587Z,16.74
2022-08-22T23:52:20.998Z,16.65
2022-08-22T23:54:47.717Z,16.42
2022-08-22T23:57:20.775Z,16.36
2022-08-22T23:59:57.902Z,16.34
